createdAt,value
2019-05-21T00:00:20.692Z,12.20
2019-05-21T00:02:49.582Z,12.20
2019-05-21T00:05:18.458Z,12.20
2019-05-21T00:07:47.450Z,12.20
2019-05-21T00:10:16.357Z,12.20
2019-05-21T00:12:45.196Z,12.20
2019-05-21T00:15:15.630Z,12.10
2019-05-21T00:17:44.553Z,12.10
2019-05-21T00:20:13.684Z,12.00
2019-05-21T00:22:42.564Z,12.00
2019-05-21T00:25:11.571Z,12.00
2019-05-21T00:27:40.583Z,12.00
2019-05-21T00:30:46.240Z,12.00
2019-05-21T00:33:53.648Z,12.00
2019-05-21T00:37:00.664Z,12.00
2019-05-21T00:40:06.068Z,11.90
2019-05-21T00:42:37.741Z,12.00
2019-05-21T00:45:09.175Z,12.00
2019-05-21T00:47:38.174Z,12.00
2019-05-21T00:50:07.492Z,12.00
2019-05-21T00:52:36.463Z,12.00
2019-05-21T00:55:07.036Z,12.00
2019-05-21T00:57:38.937Z,12.00
2019-05-21T01:00:10.117Z,12.00
2019-05-21T01:02:40.863Z,12.10
2019-05-21T01:05:10.126Z,12.10
2019-05-21T01:07:39.346Z,12.10
2019-05-21T01:10:08.487Z,12.10
2019-05-21T01:12:37.314Z,12.10
2019-05-21T01:15:07.337Z,12.10
2019-05-21T01:17:36.345Z,12.10
2019-05-21T01:20:05.874Z,12.10
2019-05-21T01:22:34.855Z,12.10
2019-05-21T01:25:05.131Z,12.10
2019-05-21T01:27:34.216Z,12.10
2019-05-21T01:30:03.402Z,12.10
2019-05-21T01:32:32.492Z,12.10
2019-05-21T01:35:16.138Z,12.10
2019-05-21T01:37:34.511Z,12.10
2019-05-21T01:40:04.312Z,12.10
2019-05-21T01:42:33.263Z,12.10
2019-05-21T01:45:04.877Z,12.10
2019-05-21T01:47:36.714Z,12.00
2019-05-21T01:50:06.443Z,12.00
2019-05-21T01:52:35.374Z,12.00
2019-05-21T01:55:05.307Z,11.90
2019-05-21T01:57:34.326Z,11.90
2019-05-21T02:00:05.207Z,11.80
2019-05-21T02:02:34.368Z,11.80
2019-05-21T02:05:05.574Z,11.80
2019-05-21T02:07:37.910Z,11.70
2019-05-21T02:10:06.963Z,11.70
2019-05-21T02:12:35.951Z,11.70
2019-05-21T02:15:06.062Z,11.70
2019-05-21T02:17:35.327Z,11.60
2019-05-21T02:20:05.183Z,11.50
2019-05-21T02:22:34.427Z,11.50
2019-05-21T02:25:04.645Z,11.50
2019-05-21T02:27:33.915Z,11.50
2019-05-21T02:30:03.486Z,11.50
2019-05-21T02:32:32.973Z,11.50
2019-05-21T02:35:02.015Z,11.50
2019-05-21T02:37:50.410Z,11.50
2019-05-21T02:40:19.217Z,11.50
2019-05-21T02:42:48.164Z,11.50
2019-05-21T02:45:17.036Z,11.50
2019-05-21T02:47:46.037Z,11.40
2019-05-21T02:50:15.486Z,11.50
2019-05-21T02:52:44.805Z,11.40
2019-05-21T02:55:16.905Z,11.50
2019-05-21T02:57:45.820Z,11.50
2019-05-21T03:00:33.175Z,11.50
2019-05-21T03:03:10.172Z,11.50
2019-05-21T03:05:40.030Z,11.50
2019-05-21T03:08:09.208Z,11.50
2019-05-21T03:10:38.444Z,11.50
2019-05-21T03:13:07.779Z,11.50
2019-05-21T03:15:36.659Z,11.50
2019-05-21T03:18:08.613Z,11.50
2019-05-21T03:20:37.597Z,11.40
2019-05-21T03:23:06.400Z,11.40
2019-05-21T03:25:35.258Z,11.40
2019-05-21T03:28:04.265Z,11.40
2019-05-21T03:30:33.177Z,11.40
2019-05-21T03:33:02.260Z,11.40
2019-05-21T03:35:31.589Z,11.40
2019-05-21T03:38:00.881Z,11.40
2019-05-21T03:40:30.057Z,11.40
2019-05-21T03:42:58.868Z,11.50
2019-05-21T03:45:29.662Z,11.50
2019-05-21T03:47:58.681Z,11.40
2019-05-21T03:50:29.209Z,11.40
2019-05-21T03:52:58.444Z,11.40
2019-05-21T03:55:27.391Z,11.30
2019-05-21T03:57:56.415Z,11.30
2019-05-21T04:00:25.338Z,11.40
2019-05-21T04:02:54.149Z,11.40
2019-05-21T04:05:24.431Z,11.30
2019-05-21T04:07:53.407Z,11.30
2019-05-21T04:10:22.415Z,11.40
2019-05-21T04:13:06.677Z,11.40
2019-05-21T04:15:40.695Z,11.30
2019-05-21T04:18:13.979Z,11.30
2019-05-21T04:20:43.023Z,11.40
2019-05-21T04:23:12.095Z,11.40
2019-05-21T04:25:41.068Z,11.40
2019-05-21T04:28:10.049Z,11.30
2019-05-21T04:30:38.872Z,11.40
2019-05-21T04:33:07.830Z,11.40
2019-05-21T04:35:36.759Z,11.40
2019-05-21T04:38:05.821Z,11.30
2019-05-21T04:40:34.634Z,11.30
2019-05-21T04:43:03.516Z,11.30
2019-05-21T04:45:32.617Z,11.40
2019-05-21T04:48:01.666Z,11.30
2019-05-21T04:50:30.569Z,11.30
2019-05-21T04:52:59.460Z,11.40
2019-05-21T04:55:28.454Z,11.40
2019-05-21T04:57:57.383Z,11.40
2019-05-21T05:00:26.379Z,11.40
2019-05-21T05:02:58.204Z,11.40
2019-05-21T05:05:27.015Z,11.30
2019-05-21T05:07:56.237Z,11.40
2019-05-21T05:10:25.424Z,11.40
2019-05-21T05:12:54.278Z,11.30
2019-05-21T05:15:23.335Z,11.30
2019-05-21T05:17:52.255Z,11.30
2019-05-21T05:20:21.401Z,11.30
2019-05-21T05:22:50.366Z,11.30
2019-05-21T05:25:22.000Z,11.30
2019-05-21T05:27:50.983Z,11.30
2019-05-21T05:30:20.048Z,11.30
2019-05-21T05:32:48.981Z,11.30
2019-05-21T05:35:17.929Z,11.30
2019-05-21T05:37:48.983Z,11.40
2019-05-21T05:40:17.490Z,11.40
2019-05-21T05:42:46.575Z,11.30
2019-05-21T05:45:16.570Z,11.40
2019-05-21T05:47:45.820Z,11.40
2019-05-21T05:50:16.608Z,11.40
2019-05-21T05:52:45.617Z,11.30
2019-05-21T05:55:14.755Z,11.30
2019-05-21T05:57:43.744Z,11.40
2019-05-21T06:00:13.714Z,11.40
2019-05-21T06:02:45.520Z,11.40
2019-05-21T06:05:14.468Z,11.40
2019-05-21T06:07:58.374Z,11.50
2019-05-21T06:10:14.088Z,11.50
2019-05-21T06:12:43.111Z,11.50
2019-05-21T06:15:12.129Z,11.50
2019-05-21T06:17:41.336Z,11.50
2019-05-21T06:20:11.022Z,11.50
2019-05-21T06:22:39.915Z,11.50
2019-05-21T06:25:08.931Z,11.50
2019-05-21T06:27:37.808Z,11.50
2019-05-21T06:30:08.377Z,11.50
2019-05-21T06:32:37.255Z,11.50
2019-05-21T06:35:06.332Z,11.50
2019-05-21T06:37:35.724Z,11.50
2019-05-21T06:40:05.234Z,11.70
2019-05-21T06:42:34.376Z,12.00
2019-05-21T06:45:04.102Z,12.20
2019-05-21T06:47:33.135Z,12.20
2019-05-21T06:50:02.042Z,12.20
2019-05-21T06:52:30.867Z,12.10
2019-05-21T06:54:59.758Z,12.10
2019-05-21T06:57:28.650Z,12.00
2019-05-21T06:59:57.633Z,11.90
2019-05-21T07:02:26.630Z,11.90
2019-05-21T07:04:55.528Z,11.90
2019-05-21T07:07:24.406Z,11.80
2019-05-21T07:09:56.646Z,11.80
2019-05-21T07:12:25.486Z,11.70
2019-05-21T07:14:54.473Z,11.70
2019-05-21T07:17:25.096Z,11.70
2019-05-21T07:19:54.050Z,11.70
2019-05-21T07:22:22.891Z,11.70
2019-05-21T07:24:51.745Z,11.70
2019-05-21T07:27:23.708Z,11.70
2019-05-21T07:29:52.623Z,11.70
2019-05-21T07:32:21.782Z,11.70
2019-05-21T07:34:50.854Z,11.70
2019-05-21T07:37:19.962Z,11.70
2019-05-21T07:39:48.897Z,11.60
2019-05-21T07:42:17.929Z,11.60
2019-05-21T07:44:47.229Z,11.60
2019-05-21T07:47:16.130Z,11.60
2019-05-21T07:49:45.013Z,11.60
2019-05-21T07:52:13.965Z,11.70
2019-05-21T07:54:42.902Z,11.60
2019-05-21T07:57:11.848Z,11.70
2019-05-21T07:59:40.724Z,11.70
2019-05-21T08:02:09.726Z,11.70
2019-05-21T08:04:38.684Z,11.70
2019-05-21T08:07:07.602Z,11.70
2019-05-21T08:09:36.458Z,11.70
2019-05-21T08:12:22.752Z,11.70
2019-05-21T08:14:36.160Z,11.70
2019-05-21T08:17:05.301Z,11.70
2019-05-21T08:19:34.177Z,11.70
2019-05-21T08:22:03.290Z,11.70
2019-05-21T08:24:32.535Z,11.70
2019-05-21T08:27:01.338Z,11.70
2019-05-21T08:29:30.267Z,11.70
2019-05-21T08:31:59.166Z,11.70
2019-05-21T08:34:30.852Z,11.70
2019-05-21T08:36:59.802Z,11.70
2019-05-21T08:39:29.439Z,11.60
2019-05-21T08:41:58.529Z,11.70
2019-05-21T08:44:27.456Z,11.70
2019-05-21T08:46:56.498Z,11.70
2019-05-21T08:49:25.761Z,11.70
2019-05-21T08:51:54.953Z,11.70
2019-05-21T08:54:41.576Z,11.60
2019-05-21T08:57:10.459Z,11.60
2019-05-21T08:59:39.362Z,11.70
2019-05-21T09:02:08.256Z,11.60
2019-05-21T09:05:18.282Z,11.70
2019-05-21T09:07:07.935Z,11.70
2019-05-21T09:09:49.154Z,11.70
2019-05-21T09:12:07.333Z,11.80
2019-05-21T09:14:36.461Z,11.80
2019-05-21T09:17:05.496Z,11.80
2019-05-21T09:19:36.589Z,11.80
2019-05-21T09:22:05.415Z,11.80
2019-05-21T09:24:34.372Z,11.90
2019-05-21T09:27:03.182Z,11.90
2019-05-21T09:29:32.095Z,11.90
2019-05-21T09:32:00.991Z,11.90
2019-05-21T09:34:46.013Z,11.90
2019-05-21T09:37:00.493Z,11.90
2019-05-21T09:39:29.609Z,12.00
2019-05-21T09:41:58.440Z,12.00
2019-05-21T09:44:27.447Z,12.00
2019-05-21T09:46:56.367Z,12.00
2019-05-21T09:49:25.573Z,12.10
2019-05-21T09:51:54.792Z,12.00
2019-05-21T09:54:23.673Z,12.10
2019-05-21T09:56:52.626Z,12.10
2019-05-21T09:59:25.809Z,12.10
2019-05-21T10:02:08.582Z,12.20
2019-05-21T10:04:37.793Z,12.20
2019-05-21T10:07:06.770Z,12.20
2019-05-21T10:09:35.708Z,12.20
2019-05-21T10:12:04.792Z,12.20
2019-05-21T10:14:34.401Z,12.20
2019-05-21T10:17:03.637Z,12.20
2019-05-21T10:19:32.519Z,12.30
2019-05-21T10:22:04.430Z,12.30
2019-05-21T10:24:33.580Z,12.30
2019-05-21T10:27:03.557Z,12.30
2019-05-21T10:29:32.605Z,12.40
2019-05-21T10:32:01.500Z,12.40
2019-05-21T10:34:33.968Z,12.40
2019-05-21T10:37:02.822Z,12.40
2019-05-21T10:39:31.744Z,12.40
2019-05-21T10:42:00.698Z,12.40
2019-05-21T10:44:29.986Z,12.40
2019-05-21T10:46:58.892Z,12.50
2019-05-21T10:49:30.656Z,12.50
2019-05-21T10:51:59.582Z,12.50
2019-05-21T10:54:31.096Z,12.50
2019-05-21T10:56:59.979Z,12.50
2019-05-21T10:59:29.191Z,12.50
2019-05-21T11:01:59.887Z,12.50
2019-05-21T11:04:30.573Z,12.50
2019-05-21T11:06:59.462Z,12.50
2019-05-21T11:09:28.431Z,12.50
2019-05-21T11:11:57.442Z,12.50
2019-05-21T11:14:26.496Z,12.50
2019-05-21T11:16:55.617Z,12.50
2019-05-21T11:19:24.525Z,12.50
2019-05-21T11:21:53.431Z,12.60
2019-05-21T11:24:22.341Z,12.60
2019-05-21T11:26:51.703Z,12.60
2019-05-21T11:29:23.744Z,12.60
2019-05-21T11:31:56.927Z,12.60
2019-05-21T11:34:23.340Z,12.60
2019-05-21T11:36:52.301Z,12.60
2019-05-21T11:39:21.332Z,12.60
2019-05-21T11:41:51.770Z,12.70
2019-05-21T11:44:28.601Z,12.70
2019-05-21T11:46:57.422Z,12.70
2019-05-21T11:49:26.446Z,12.70
2019-05-21T11:51:55.545Z,12.70
2019-05-21T11:54:24.486Z,12.70
2019-05-21T11:56:53.501Z,12.70
2019-05-21T11:59:22.521Z,12.80
2019-05-21T12:01:51.393Z,12.80
2019-05-21T12:04:20.320Z,12.80
2019-05-21T12:06:49.266Z,12.80
2019-05-21T12:09:21.075Z,12.80
2019-05-21T12:11:50.314Z,12.80
2019-05-21T12:14:19.445Z,12.90
2019-05-21T12:16:48.662Z,12.90
2019-05-21T12:19:17.505Z,12.90
2019-05-21T12:21:46.441Z,12.90
2019-05-21T12:24:15.456Z,12.90
2019-05-21T12:26:44.585Z,12.90
2019-05-21T12:29:13.674Z,12.90
2019-05-21T12:31:42.637Z,12.90
2019-05-21T12:34:11.574Z,12.90
2019-05-21T12:36:40.525Z,12.90
2019-05-21T12:39:14.390Z,12.90
2019-05-21T12:41:40.216Z,12.90
2019-05-21T12:44:09.294Z,12.90
2019-05-21T12:46:39.391Z,12.90
2019-05-21T12:49:08.553Z,12.90
2019-05-21T12:51:37.501Z,12.90
2019-05-21T12:54:06.332Z,13.00
2019-05-21T12:56:40.794Z,13.00
2019-05-21T12:59:08.472Z,12.90
2019-05-21T13:01:37.565Z,12.90
2019-05-21T13:04:06.465Z,12.80
2019-05-21T13:06:35.585Z,12.80
2019-05-21T13:09:08.057Z,12.80
2019-05-21T13:11:36.844Z,12.70
2019-05-21T13:14:05.854Z,12.70
2019-05-21T13:16:34.874Z,12.70
2019-05-21T13:19:04.101Z,12.60
2019-05-21T13:21:33.008Z,12.60
2019-05-21T13:24:02.030Z,12.70
2019-05-21T13:26:31.114Z,12.70
2019-05-21T13:29:00.182Z,12.70
2019-05-21T13:31:29.264Z,12.70
2019-05-21T13:33:58.364Z,12.70
2019-05-21T13:36:27.251Z,12.70
2019-05-21T13:38:56.248Z,12.50
2019-05-21T13:41:28.241Z,12.50
2019-05-21T13:43:57.157Z,12.50
2019-05-21T13:46:26.037Z,12.50
2019-05-21T13:48:56.559Z,12.60
2019-05-21T13:51:25.434Z,12.60
2019-05-21T13:53:54.445Z,12.60
2019-05-21T13:56:23.545Z,12.50
2019-05-21T13:58:52.386Z,12.50
2019-05-21T14:01:38.734Z,12.60
2019-05-21T14:03:51.983Z,12.60
2019-05-21T14:06:20.993Z,12.60
2019-05-21T14:08:49.931Z,12.50
2019-05-21T14:11:18.877Z,12.60
2019-05-21T14:13:47.888Z,12.60
2019-05-21T14:16:16.858Z,12.50
2019-05-21T14:18:45.825Z,12.50
2019-05-21T14:21:14.694Z,12.60
2019-05-21T14:23:43.623Z,12.60
2019-05-21T14:26:12.608Z,12.60
2019-05-21T14:28:44.177Z,12.60
2019-05-21T14:31:13.088Z,12.70
2019-05-21T14:33:46.096Z,12.70
2019-05-21T14:36:12.632Z,12.70
2019-05-21T14:38:41.522Z,12.70
2019-05-21T14:41:10.420Z,12.70
2019-05-21T14:43:42.143Z,12.70
2019-05-21T14:46:11.104Z,12.70
2019-05-21T14:48:40.301Z,12.80
2019-05-21T14:51:13.324Z,12.70
2019-05-21T14:53:39.953Z,12.80
2019-05-21T14:56:08.902Z,12.80
2019-05-21T14:58:37.742Z,12.80
2019-05-21T15:01:06.682Z,12.80
2019-05-21T15:03:35.665Z,12.80
2019-05-21T15:06:04.639Z,12.80
2019-05-21T15:08:36.204Z,12.70
2019-05-21T15:11:06.257Z,12.80
2019-05-21T15:13:35.185Z,12.70
2019-05-21T15:16:04.193Z,12.70
2019-05-21T15:18:33.168Z,12.70
2019-05-21T15:21:04.018Z,12.70
2019-05-21T15:23:33.365Z,12.60
2019-05-21T15:26:02.384Z,12.60
2019-05-21T15:28:31.320Z,12.70
2019-05-21T15:31:00.293Z,12.70
2019-05-21T15:33:29.228Z,12.70
2019-05-21T15:35:58.098Z,12.80
2019-05-21T15:38:27.148Z,12.80
2019-05-21T15:41:09.582Z,12.70
2019-05-21T15:43:27.073Z,12.80
2019-05-21T15:45:55.965Z,12.80
2019-05-21T15:48:26.669Z,12.90
2019-05-21T15:50:57.282Z,12.90
2019-05-21T15:53:26.377Z,12.90
2019-05-21T15:55:55.300Z,12.90
2019-05-21T15:58:26.689Z,13.00
2019-05-21T16:00:55.079Z,13.00
2019-05-21T16:03:24.110Z,13.00
2019-05-21T16:05:53.131Z,13.00
2019-05-21T16:08:23.795Z,13.00
2019-05-21T16:10:55.687Z,13.10
2019-05-21T16:13:24.764Z,13.10
2019-05-21T16:15:53.697Z,13.10
2019-05-21T16:18:22.754Z,13.10
2019-05-21T16:20:51.879Z,13.10
2019-05-21T16:23:22.100Z,13.10
2019-05-21T16:25:51.069Z,13.10
2019-05-21T16:28:20.124Z,13.20
2019-05-21T16:30:49.074Z,13.20
2019-05-21T16:33:18.174Z,13.20
2019-05-21T16:35:47.298Z,13.20
2019-05-21T16:38:19.056Z,13.20
2019-05-21T16:40:47.880Z,13.20
2019-05-21T16:43:16.852Z,13.20
2019-05-21T16:45:45.729Z,13.20
2019-05-21T16:48:14.638Z,13.20
2019-05-21T16:50:43.723Z,13.20
2019-05-21T16:53:12.770Z,13.30
2019-05-21T16:55:41.795Z,13.30
2019-05-21T16:58:10.780Z,13.20
2019-05-21T17:00:39.797Z,13.20
2019-05-21T17:03:08.768Z,13.20
2019-05-21T17:05:40.857Z,13.20
2019-05-21T17:08:10.070Z,13.10
2019-05-21T17:10:39.263Z,13.10
2019-05-21T17:13:08.243Z,13.10
2019-05-21T17:15:37.207Z,13.10
2019-05-21T17:18:06.419Z,13.20
2019-05-21T17:20:35.483Z,13.20
2019-05-21T17:23:04.356Z,13.20
2019-05-21T17:25:33.330Z,13.20
2019-05-21T17:28:02.326Z,13.20
2019-05-21T17:30:31.376Z,13.20
2019-05-21T17:33:00.423Z,13.20
2019-05-21T17:35:30.548Z,13.30
2019-05-21T17:37:59.679Z,13.20
2019-05-21T17:40:28.727Z,13.20
2019-05-21T17:42:57.769Z,13.20
2019-05-21T17:45:26.760Z,13.10
2019-05-21T17:47:55.878Z,13.00
2019-05-21T17:50:24.995Z,12.90
2019-05-21T17:52:53.932Z,12.90
2019-05-21T17:55:22.923Z,12.80
2019-05-21T17:57:52.333Z,12.80
2019-05-21T18:00:23.640Z,12.80
2019-05-21T18:02:53.132Z,12.80
2019-05-21T18:05:25.125Z,12.80
2019-05-21T18:07:54.269Z,12.90
2019-05-21T18:10:23.141Z,12.90
2019-05-21T18:12:52.047Z,12.90
2019-05-21T18:15:21.351Z,12.90
2019-05-21T18:17:50.380Z,12.80
2019-05-21T18:20:20.507Z,12.80
2019-05-21T18:22:54.228Z,12.80
2019-05-21T18:25:23.464Z,12.90
2019-05-21T18:27:52.465Z,12.90
2019-05-21T18:30:21.515Z,12.90
2019-05-21T18:32:50.992Z,12.90
2019-05-21T18:35:20.006Z,12.80
2019-05-21T18:37:53.412Z,12.80
2019-05-21T18:40:22.433Z,12.80
2019-05-21T18:42:51.495Z,12.80
2019-05-21T18:45:20.520Z,12.80
2019-05-21T18:47:49.693Z,12.80
2019-05-21T18:50:18.610Z,12.70
2019-05-21T18:52:49.602Z,12.60
2019-05-21T18:55:18.102Z,12.60
2019-05-21T18:57:47.104Z,12.50
2019-05-21T19:00:16.920Z,12.60
2019-05-21T19:02:46.056Z,12.60
2019-05-21T19:05:15.168Z,12.70
2019-05-21T19:07:46.615Z,12.70
2019-05-21T19:10:17.048Z,12.70
2019-05-21T19:12:46.232Z,12.60
2019-05-21T19:15:16.330Z,12.60
2019-05-21T19:17:45.251Z,12.70
2019-05-21T19:20:14.517Z,12.80
2019-05-21T19:22:44.002Z,12.80
2019-05-21T19:25:13.090Z,12.80
2019-05-21T19:27:41.967Z,12.80
2019-05-21T19:30:10.930Z,12.80
2019-05-21T19:32:39.898Z,12.70
2019-05-21T19:35:08.989Z,12.70
2019-05-21T19:37:37.981Z,12.60
2019-05-21T19:40:06.884Z,12.60
2019-05-21T19:42:35.906Z,12.70
2019-05-21T19:45:06.711Z,12.70
2019-05-21T19:47:35.853Z,12.70
2019-05-21T19:50:06.659Z,12.70
2019-05-21T19:52:35.698Z,12.80
2019-05-21T19:55:06.584Z,12.80
2019-05-21T19:57:36.162Z,12.80
2019-05-21T20:00:06.818Z,12.80
2019-05-21T20:02:35.654Z,12.80
2019-05-21T20:05:06.289Z,12.80
2019-05-21T20:07:35.239Z,12.90
2019-05-21T20:10:06.209Z,12.90
2019-05-21T20:12:36.162Z,12.90
2019-05-21T20:15:08.422Z,12.90
2019-05-21T20:17:38.780Z,12.90
2019-05-21T20:20:08.464Z,12.80
2019-05-21T20:22:37.874Z,12.80
2019-05-21T20:25:07.555Z,12.80
2019-05-21T20:27:37.114Z,12.80
2019-05-21T20:30:12.662Z,12.70
2019-05-21T20:32:40.276Z,12.80
2019-05-21T20:35:10.858Z,12.80
2019-05-21T20:37:41.167Z,12.80
2019-05-21T20:40:10.818Z,12.80
2019-05-21T20:42:40.722Z,12.80
2019-05-21T20:45:12.394Z,12.80
2019-05-21T20:47:41.442Z,12.80
2019-05-21T20:50:12.607Z,12.80
2019-05-21T20:52:42.162Z,12.80
2019-05-21T20:55:11.638Z,12.80
2019-05-21T20:57:40.561Z,12.80
2019-05-21T21:00:11.026Z,12.80
2019-05-21T21:02:41.819Z,12.80
2019-05-21T21:05:12.162Z,12.80
2019-05-21T21:07:41.611Z,12.70
2019-05-21T21:10:11.934Z,12.70
2019-05-21T21:12:41.671Z,12.80
2019-05-21T21:15:11.574Z,12.80
2019-05-21T21:17:40.523Z,12.80
2019-05-21T21:20:09.383Z,12.80
2019-05-21T21:22:38.239Z,12.80
2019-05-21T21:25:07.393Z,12.80
2019-05-21T21:27:37.003Z,12.80
2019-05-21T21:30:08.852Z,12.80
2019-05-21T21:32:38.240Z,12.80
2019-05-21T21:35:09.129Z,12.80
2019-05-21T21:37:37.967Z,12.80
2019-05-21T21:40:08.503Z,12.80
2019-05-21T21:42:37.539Z,12.80
2019-05-21T21:45:06.953Z,12.80
2019-05-21T21:47:36.542Z,12.80
2019-05-21T21:50:06.772Z,12.80
2019-05-21T21:52:36.447Z,12.80
2019-05-21T21:55:09.137Z,12.80
2019-05-21T21:57:38.347Z,12.80
2019-05-21T22:00:13.479Z,12.80
2019-05-21T22:02:42.683Z,12.80
2019-05-21T22:05:11.633Z,12.80
2019-05-21T22:07:40.543Z,12.80
2019-05-21T22:10:09.798Z,12.80
2019-05-21T22:12:39.013Z,12.80
2019-05-21T22:15:08.252Z,12.80
2019-05-21T22:17:37.538Z,12.80
2019-05-21T22:20:08.201Z,12.70
2019-05-21T22:22:37.375Z,12.80
2019-05-21T22:25:07.025Z,12.80
2019-05-21T22:27:35.895Z,12.80
2019-05-21T22:30:05.881Z,12.70
2019-05-21T22:32:34.877Z,12.70
2019-05-21T22:35:04.945Z,12.70
2019-05-21T22:37:34.650Z,12.70
2019-05-21T22:40:04.339Z,12.70
2019-05-21T22:42:33.811Z,12.70
2019-05-21T22:45:08.591Z,12.70
2019-05-21T22:47:34.848Z,12.70
2019-05-21T22:50:07.663Z,12.70
2019-05-21T22:52:36.881Z,12.70
2019-05-21T22:55:08.656Z,12.70
2019-05-21T22:57:37.512Z,12.70
2019-05-21T23:00:07.064Z,12.70
2019-05-21T23:02:37.755Z,12.70
2019-05-21T23:05:07.234Z,12.60
2019-05-21T23:07:36.218Z,12.60
2019-05-21T23:10:09.650Z,12.60
2019-05-21T23:12:39.545Z,12.60
2019-05-21T23:15:23.694Z,12.60
2019-05-21T23:17:39.793Z,12.60
2019-05-21T23:20:10.018Z,12.60
2019-05-21T23:22:39.004Z,12.60
2019-05-21T23:25:08.910Z,12.60
2019-05-21T23:27:38.861Z,12.60
2019-05-21T23:30:09.653Z,12.50
2019-05-21T23:32:39.141Z,12.50
2019-05-21T23:35:09.753Z,12.50
2019-05-21T23:37:40.507Z,12.50
2019-05-21T23:40:15.679Z,12.50
2019-05-21T23:42:44.678Z,12.50
2019-05-21T23:45:15.437Z,12.50
2019-05-21T23:47:44.405Z,12.50
2019-05-21T23:50:14.361Z,12.50
2019-05-21T23:52:44.597Z,12.50
2019-05-21T23:55:14.271Z,12.50
2019-05-21T23:57:43.194Z,12.50
